Time;durP1;ratioP1;P1;durP2;ratioP2;P2;SDS_P1;SDS_P2;PMS_P1;PMS_P2;Temp;Humidity;BMP_temperature;BMP_pressure;BME280_temperature;BME280_humidity;BME280_pressure;Samples;Min_cycle;Max_cycle;Signal;HPM_P1;HPM_P2
2023/07/24 00:00:09;;;;;;;3.28;2.35;;;;;;;;;;6185167;28;20800;-68
2023/07/24 00:03:09;;;;;;;2.78;2.50;;;;;;;;;;6179562;28;20042;-68
2023/07/24 00:06:09;;;;;;;3.55;2.50;;;;;;;;;;6189185;28;20026;-68
2023/07/24 00:09:09;;;;;;;2.67;2.47;;;;;;;;;;6186800;28;20463;-68
2023/07/24 00:12:10;;;;;;;4.17;2.40;;;;;;;;;;6188061;28;20159;-68
2023/07/24 00:15:10;;;;;;;4.00;2.70;;;;;;;;;;6185932;28;20270;-68
2023/07/24 00:18:10;;;;;;;3.33;2.58;;;;;;;;;;6187542;28;20300;-68
2023/07/24 00:21:13;;;;;;;3.10;2.30;;;;;;;;;;6206210;28;20483;-68
2023/07/24 00:24:13;;;;;;;3.58;2.55;;;;;;;;;;6189808;28;20344;-66
2023/07/24 00:27:13;;;;;;;3.35;2.55;;;;;;;;;;6193315;28;20034;-66
2023/07/24 00:30:14;;;;;;;2.95;2.42;;;;;;;;;;6184614;28;20021;-66
2023/07/24 00:33:14;;;;;;;3.23;2.67;;;;;;;;;;6190337;28;20029;-66
2023/07/24 00:36:14;;;;;;;3.03;2.28;;;;;;;;;;6190474;28;20296;-67
2023/07/24 00:39:14;;;;;;;3.70;2.67;;;;;;;;;;6190817;28;20022;-67
2023/07/24 00:42:15;;;;;;;3.63;2.65;;;;;;;;;;6186824;28;20110;-67
2023/07/24 00:45:15;;;;;;;5.67;2.77;;;;;;;;;;6191665;28;20110;-66
2023/07/24 00:48:15;;;;;;;3.47;2.30;;;;;;;;;;6192227;28;20615;-66
2023/07/24 00:51:16;;;;;;;3.45;2.55;;;;;;;;;;6191591;28;20591;-66
2023/07/24 00:54:16;;;;;;;3.20;2.33;;;;;;;;;;6189267;28;20026;-67
2023/07/24 00:57:17;;;;;;;3.47;2.78;;;;;;;;;;6189345;28;20506;-66
2023/07/24 01:00:17;;;;;;;4.20;2.60;;;;;;;;;;6193251;28;20023;-65
2023/07/24 01:03:17;;;;;;;2.42;2.10;;;;;;;;;;6188212;28;20026;-66
2023/07/24 01:06:18;;;;;;;2.53;2.03;;;;;;;;;;6187087;28;20157;-67
2023/07/24 01:09:18;;;;;;;2.97;2.42;;;;;;;;;;6190869;28;20022;-66
2023/07/24 01:12:36;;;;;;;2.17;1.98;;;;;;;;;;6180286;28;20484;-66
2023/07/24 01:15:45;;;;;;;3.65;2.40;;;;;;;;;;6190023;28;20402;-68
2023/07/24 01:18:45;;;;;;;2.38;2.05;;;;;;;;;;6190157;28;20105;-68
2023/07/24 01:21:45;;;;;;;;;;;;;;;;;;6192866;28;20072;-67
2023/07/24 01:24:49;;;;;;;2.00;1.75;;;;;;;;;;6191862;28;19945;-69
2023/07/24 01:27:49;;;;;;;3.97;2.15;;;;;;;;;;6193868;28;20010;-66
2023/07/24 01:30:49;;;;;;;;;;;;;;;;;;6207210;28;20040;-68
2023/07/24 01:33:49;;;;;;;1.73;1.48;;;;;;;;;;6205398;28;19916;-68
2023/07/24 01:36:50;;;;;;;2.83;2.03;;;;;;;;;;6194489;28;20050;-67
2023/07/24 01:39:50;;;;;;;3.10;2.40;;;;;;;;;;6188258;28;20075;-67
2023/07/24 01:42:51;;;;;;;2.80;2.47;;;;;;;;;;6189973;28;20050;-67
2023/07/24 01:45:52;;;;;;;2.80;2.45;;;;;;;;;;6188548;28;20472;-67
2023/07/24 01:48:52;;;;;;;2.80;2.23;;;;;;;;;;6191647;28;20018;-67
2023/07/24 01:51:52;;;;;;;;;;;;;;;;;;6190217;28;20276;-68
2023/07/24 01:54:52;;;;;;;2.97;2.15;;;;;;;;;;6185100;28;19909;-67
2023/07/24 01:57:52;;;;;;;;;;;;;;;;;;6187584;28;20433;-68
2023/07/24 02:00:54;;;;;;;2.45;1.70;;;;;;;;;;6189795;28;19918;-67
2023/07/24 02:03:55;;;;;;;2.50;2.08;;;;;;;;;;6179280;28;20084;-68
2023/07/24 02:06:55;;;;;;;;;;;;;;;;;;6190262;28;20089;-67
2023/07/24 02:09:55;;;;;;;3.25;2.45;;;;;;;;;;6189252;28;19909;-67
2023/07/24 02:12:55;;;;;;;;;;;;;;;;;;6183682;28;20132;-69
2023/07/24 02:15:55;;;;;;;3.20;2.85;;;;;;;;;;6185746;28;20008;-68
2023/07/24 02:18:55;;;;;;;;;;;;;;;;;;6185207;28;20033;-68
2023/07/24 02:21:56;;;;;;;4.15;1.92;;;;;;;;;;6182736;28;19918;-69
2023/07/24 02:24:56;;;;;;;;;;;;;;;;;;6189371;28;20077;-68
2023/07/24 02:27:56;;;;;;;1.92;1.58;;;;;;;;;;6190837;28;19920;-68
2023/07/24 02:30:57;;;;;;;;;;;;;;;;;;6187807;28;20030;-68
2023/07/24 02:33:57;;;;;;;1.90;1.67;;;;;;;;;;6184654;28;19910;-68
2023/07/24 02:36:57;;;;;;;;;;;;;;;;;;6191610;28;20023;-68
2023/07/24 02:39:57;;;;;;;2.35;1.85;;;;;;;;;;6189077;28;19914;-68
2023/07/24 02:42:57;;;;;;;;;;;;;;;;;;6183468;28;20015;-67
2023/07/24 02:46:02;;;;;;;3.25;2.53;;;;;;;;;;6186617;28;19914;-68
2023/07/24 02:49:02;;;;;;;3.33;2.45;;;;;;;;;;6191344;28;20109;-68
2023/07/24 02:52:02;;;;;;;;;;;;;;;;;;6186557;28;20040;-67
2023/07/24 02:55:02;;;;;;;3.05;2.53;;;;;;;;;;6186895;28;20350;-68
2023/07/24 02:58:02;;;;;;;;;;;;;;;;;;6184221;28;20830;-68
2023/07/24 03:01:04;;;;;;;3.13;2.42;;;;;;;;;;6180377;28;20001;-68
2023/07/24 03:04:05;;;;;;;2.97;2.33;;;;;;;;;;6184214;28;20379;-67
2023/07/24 03:07:06;;;;;;;3.63;2.45;;;;;;;;;;6201340;28;20044;-67
2023/07/24 03:10:07;;;;;;;;;;;;;;;;;;6186102;28;20022;-68
2023/07/24 03:13:08;;;;;;;3.90;2.10;;;;;;;;;;6184869;28;19930;-67
2023/07/24 03:16:08;;;;;;;;;;;;;;;;;;6184037;28;20145;-67
2023/07/24 03:19:08;;;;;;;3.42;2.35;;;;;;;;;;6186718;28;19932;-67
2023/07/24 03:22:08;;;;;;;;;;;;;;;;;;6183058;28;20022;-68
2023/07/24 03:25:08;;;;;;;2.60;2.22;;;;;;;;;;6187456;28;20371;-67
2023/07/24 03:28:08;;;;;;;;;;;;;;;;;;6183066;28;20037;-67
2023/07/24 03:31:09;;;;;;;3.00;2.20;;;;;;;;;;6182477;28;19917;-67
2023/07/24 03:34:09;;;;;;;;;;;;;;;;;;6183615;28;20033;-68
2023/07/24 03:37:09;;;;;;;3.33;2.42;;;;;;;;;;6186020;28;19913;-67
2023/07/24 03:40:09;;;;;;;;;;;;;;;;;;6188555;28;20420;-67
2023/07/24 03:43:09;;;;;;;2.38;2.05;;;;;;;;;;6186225;28;19910;-67
2023/07/24 03:46:10;;;;;;;;;;;;;;;;;;6188829;28;20089;-67
2023/07/24 03:49:10;;;;;;;3.20;2.27;;;;;;;;;;6187009;28;19906;-70
2023/07/24 03:52:10;;;;;;;;;;;;;;;;;;6186245;28;20042;-66
2023/07/24 03:55:10;;;;;;;2.58;1.88;;;;;;;;;;6188946;28;19920;-67
2023/07/24 03:58:10;;;;;;;;;;;;;;;;;;6189933;28;20026;-67
2023/07/24 04:01:11;;;;;;;3.50;1.98;;;;;;;;;;6184913;28;19985;-67
2023/07/24 04:04:11;;;;;;;;;;;;;;;;;;6189106;28;20018;-67
2023/07/24 04:07:11;;;;;;;2.80;2.10;;;;;;;;;;6181006;28;19922;-66
2023/07/24 04:10:11;;;;;;;;;;;;;;;;;;6187178;28;20030;-67
2023/07/24 04:13:11;;;;;;;3.72;2.40;;;;;;;;;;6186370;28;19922;-66
2023/07/24 04:16:12;;;;;;;;;;;;;;;;;;6185653;28;20483;-67
2023/07/24 04:19:12;;;;;;;2.13;1.92;;;;;;;;;;6184733;28;20327;-67
2023/07/24 04:22:12;;;;;;;;;;;;;;;;;;6183031;28;20106;-67
2023/07/24 04:25:12;;;;;;;2.85;2.08;;;;;;;;;;6185976;28;20457;-68
2023/07/24 04:28:12;;;;;;;;;;;;;;;;;;6178501;28;20375;-68
2023/07/24 04:31:13;;;;;;;2.83;2.25;;;;;;;;;;6182727;28;20006;-67
2023/07/24 04:34:13;;;;;;;;;;;;;;;;;;6185101;28;20546;-66
2023/07/24 04:37:13;;;;;;;2.45;2.25;;;;;;;;;;6178582;28;19918;-67
2023/07/24 04:40:13;;;;;;;;;;;;;;;;;;6186044;28;20102;-69
2023/07/24 04:43:13;;;;;;;2.92;1.95;;;;;;;;;;6183775;28;19987;-69
2023/07/24 04:46:13;;;;;;;;;;;;;;;;;;6183379;28;20034;-69
2023/07/24 04:49:14;;;;;;;4.00;2.63;;;;;;;;;;6185829;28;19964;-67
2023/07/24 04:52:14;;;;;;;;;;;;;;;;;;6179886;28;20058;-68
2023/07/24 04:55:14;;;;;;;3.30;1.95;;;;;;;;;;6181624;28;19933;-67
2023/07/24 04:58:14;;;;;;;;;;;;;;;;;;6184574;28;20462;-69
2023/07/24 05:01:14;;;;;;;4.25;2.30;;;;;;;;;;6187803;28;19924;-68
2023/07/24 05:04:14;;;;;;;;;;;;;;;;;;6183202;28;20057;-67
2023/07/24 05:07:15;;;;;;;2.47;2.25;;;;;;;;;;6185125;28;19920;-67
2023/07/24 05:10:15;;;;;;;2.77;2.43;;;;;;;;;;6189945;28;20033;-68
2023/07/24 05:13:15;;;;;;;;;;;;;;;;;;6189428;28;20727;-69
2023/07/24 05:16:15;;;;;;;2.80;2.47;;;;;;;;;;6200359;28;19914;-67
2023/07/24 05:19:16;;;;;;;3.07;2.40;;;;;;;;;;6188759;28;20455;-68
2023/07/24 05:22:16;;;;;;;3.53;2.83;;;;;;;;;;6189273;28;20369;-66
2023/07/24 05:25:16;;;;;;;3.27;2.73;;;;;;;;;;6188744;28;20015;-66
2023/07/24 05:28:16;;;;;;;4.20;3.33;;;;;;;;;;6189763;28;20430;-67
2023/07/24 05:31:16;;;;;;;4.97;3.30;;;;;;;;;;6188052;28;20034;-68
2023/07/24 05:34:17;;;;;;;6.50;2.93;;;;;;;;;;6187210;28;20461;-67
2023/07/24 05:37:17;;;;;;;3.67;2.70;;;;;;;;;;6186203;28;20018;-68
2023/07/24 05:40:17;;;;;;;3.72;2.95;;;;;;;;;;6190791;28;20360;-69
2023/07/24 05:43:17;;;;;;;3.53;2.63;;;;;;;;;;6190913;28;20383;-67
2023/07/24 05:46:18;;;;;;;4.17;3.00;;;;;;;;;;6190482;28;20742;-67
2023/07/24 05:49:18;;;;;;;3.00;2.70;;;;;;;;;;6185884;28;20734;-68
2023/07/24 05:52:18;;;;;;;4.17;3.47;;;;;;;;;;6189717;28;20026;-68
2023/07/24 05:55:18;;;;;;;5.10;3.80;;;;;;;;;;6191451;28;20314;-69
2023/07/24 05:58:18;;;;;;;3.47;3.10;;;;;;;;;;6192796;28;20312;-68
2023/07/24 06:01:19;;;;;;;4.40;3.73;;;;;;;;;;6192360;28;20269;-68
2023/07/24 06:04:19;;;;;;;5.07;3.60;;;;;;;;;;6194001;28;20277;-69
2023/07/24 06:07:19;;;;;;;6.47;3.60;;;;;;;;;;6188848;28;20053;-69
2023/07/24 06:10:19;;;;;;;4.33;3.63;;;;;;;;;;6189798;28;20313;-68
2023/07/24 06:13:20;;;;;;;8.03;4.10;;;;;;;;;;6189524;28;20359;-70
2023/07/24 06:16:20;;;;;;;5.85;3.80;;;;;;;;;;6189966;28;20332;-68
2023/07/24 06:19:21;;;;;;;6.43;4.13;;;;;;;;;;6184202;28;20034;-67
2023/07/24 06:22:21;;;;;;;4.82;4.07;;;;;;;;;;6187512;28;20018;-68
2023/07/24 06:25:21;;;;;;;6.27;4.50;;;;;;;;;;6182047;28;20022;-68
2023/07/24 06:28:22;;;;;;;5.37;4.23;;;;;;;;;;6199080;28;20313;-68
2023/07/24 06:31:22;;;;;;;4.85;3.90;;;;;;;;;;6185649;28;20274;-67
2023/07/24 06:34:22;;;;;;;5.80;4.30;;;;;;;;;;6185809;28;20088;-67
2023/07/24 06:37:22;;;;;;;5.13;3.80;;;;;;;;;;6184334;28;20022;-69
2023/07/24 06:40:22;;;;;;;6.70;4.03;;;;;;;;;;6181729;28;20269;-68
2023/07/24 06:43:23;;;;;;;5.30;3.90;;;;;;;;;;6186828;28;20073;-69
2023/07/24 06:46:23;;;;;;;6.13;3.85;;;;;;;;;;6189594;28;20069;-69
2023/07/24 06:49:23;;;;;;;5.23;4.17;;;;;;;;;;6185235;28;20040;-69
2023/07/24 06:52:23;;;;;;;5.30;3.97;;;;;;;;;;6187805;28;20018;-68
2023/07/24 06:55:24;;;;;;;5.43;4.13;;;;;;;;;;6185557;28;20018;-68
2023/07/24 06:58:24;;;;;;;5.73;3.87;;;;;;;;;;6196639;28;20034;-67
2023/07/24 07:01:24;;;;;;;6.47;3.97;;;;;;;;;;6184749;28;20272;-66
2023/07/24 07:04:24;;;;;;;5.25;4.15;;;;;;;;;;6187170;28;20019;-67
2023/07/24 07:07:25;;;;;;;6.43;4.73;;;;;;;;;;6180945;28;20026;-67
2023/07/24 07:10:25;;;;;;;4.97;4.22;;;;;;;;;;6199327;28;20026;-67
2023/07/24 07:13:26;;;;;;;5.90;4.43;;;;;;;;;;6179403;28;20068;-70
2023/07/24 07:16:26;;;;;;;5.13;4.60;;;;;;;;;;6183904;28;20094;-68
2023/07/24 07:19:26;;;;;;;5.43;4.57;;;;;;;;;;6180519;28;20786;-68
2023/07/24 07:22:27;;;;;;;5.80;4.28;;;;;;;;;;6178452;28;20034;-69
2023/07/24 07:25:27;;;;;;;5.67;4.63;;;;;;;;;;6167771;28;20618;-67
2023/07/24 07:28:27;;;;;;;7.47;4.33;;;;;;;;;;6119009;28;20286;-67
2023/07/24 07:31:27;;;;;;;6.53;5.00;;;;;;;;;;6158506;28;20352;-67
2023/07/24 07:34:28;;;;;;;6.03;4.70;;;;;;;;;;6154568;28;20038;-65
2023/07/24 07:37:28;;;;;;;6.13;4.23;;;;;;;;;;6156024;28;20133;-67
2023/07/24 07:40:28;;;;;;;5.50;4.23;;;;;;;;;;6154625;28;20083;-68
2023/07/24 07:43:29;;;;;;;6.32;4.60;;;;;;;;;;6140374;28;20301;-67
2023/07/24 07:46:29;;;;;;;6.17;3.93;;;;;;;;;;6148960;28;20105;-67
2023/07/24 07:49:29;;;;;;;6.32;4.57;;;;;;;;;;5471857;28;10000712;-67
2023/07/24 07:52:29;;;;;;;5.00;4.33;;;;;;;;;;6158565;28;20026;-68
2023/07/24 07:55:30;;;;;;;5.27;3.83;;;;;;;;;;6151297;28;20333;-68
2023/07/24 07:58:30;;;;;;;7.00;4.68;;;;;;;;;;6155463;28;20218;-70
2023/07/24 08:01:30;;;;;;;7.53;4.97;;;;;;;;;;6158341;28;20026;-68
2023/07/24 08:04:31;;;;;;;5.85;5.25;;;;;;;;;;6154502;28;21163;-69
2023/07/24 08:07:31;;;;;;;5.32;4.30;;;;;;;;;;6157975;28;20026;-71
2023/07/24 08:10:31;;;;;;;5.47;4.93;;;;;;;;;;6172784;28;20517;-68
2023/07/24 08:13:32;;;;;;;4.47;3.93;;;;;;;;;;6157684;28;20364;-69
2023/07/24 08:16:33;;;;;;;5.03;4.28;;;;;;;;;;6153354;28;20031;-68
2023/07/24 08:19:33;;;;;;;5.00;4.50;;;;;;;;;;6155200;28;20165;-68
2023/07/24 08:22:33;;;;;;;5.07;4.30;;;;;;;;;;6157849;28;20856;-69
2023/07/24 08:25:33;;;;;;;4.28;3.88;;;;;;;;;;6160553;28;20030;-70
2023/07/24 08:28:36;;;;;;;6.50;4.53;;;;;;;;;;6160410;28;20057;-69
2023/07/24 08:31:37;;;;;;;5.18;4.43;;;;;;;;;;6160345;28;20023;-68
2023/07/24 08:34:37;;;;;;;6.03;4.67;;;;;;;;;;6154347;28;20466;-69
2023/07/24 08:37:37;;;;;;;5.40;4.60;;;;;;;;;;6156016;28;20444;-71
2023/07/24 08:40:39;;;;;;;5.20;4.20;;;;;;;;;;6154936;28;20109;-67
2023/07/24 08:43:41;;;;;;;9.07;4.60;;;;;;;;;;6157573;28;20462;-71
2023/07/24 08:46:45;;;;;;;4.88;4.03;;;;;;;;;;6161376;28;20325;-68
2023/07/24 08:49:46;;;;;;;4.97;4.47;;;;;;;;;;6159454;28;20112;-68
2023/07/24 08:52:46;;;;;;;5.05;4.20;;;;;;;;;;6160558;28;20132;-69
2023/07/24 08:55:49;;;;;;;4.88;4.30;;;;;;;;;;6152156;28;20258;-68
2023/07/24 08:58:49;;;;;;;6.30;4.05;;;;;;;;;;6157348;28;20026;-69
2023/07/24 09:01:50;;;;;;;6.55;4.82;;;;;;;;;;6158578;28;20440;-69
2023/07/24 09:04:50;;;;;;;4.90;4.22;;;;;;;;;;6156406;28;20030;-70
2023/07/24 09:07:52;;;;;;;4.60;4.10;;;;;;;;;;6158361;28;20116;-70
2023/07/24 09:10:53;;;;;;;5.93;4.28;;;;;;;;;;6160252;28;20110;-70
2023/07/24 09:13:53;;;;;;;4.88;4.43;;;;;;;;;;6160621;28;20022;-70
2023/07/24 09:17:03;;;;;;;4.60;4.17;;;;;;;;;;6156878;28;20133;-71
2023/07/24 09:20:04;;;;;;;4.40;4.00;;;;;;;;;;6157367;28;20413;-70
2023/07/24 09:23:05;;;;;;;4.03;3.70;;;;;;;;;;6175523;28;20031;-70
2023/07/24 09:26:05;;;;;;;4.32;3.92;;;;;;;;;;6159210;28;20061;-70
2023/07/24 09:29:06;;;;;;;4.63;3.75;;;;;;;;;;6155480;28;20037;-71
2023/07/24 09:32:06;;;;;;;4.32;3.85;;;;;;;;;;6156748;28;20066;-70
2023/07/24 09:35:17;;;;;;;4.35;3.95;;;;;;;;;;6156856;28;20030;-70
2023/07/24 09:38:17;;;;;;;6.68;4.85;;;;;;;;;;6155702;28;20038;-71
2023/07/24 09:41:26;;;;;;;4.90;4.40;;;;;;;;;;6160919;28;20033;-71
2023/07/24 09:44:28;;;;;;;4.13;3.75;;;;;;;;;;6163643;28;20038;-71
2023/07/24 09:47:28;;;;;;;5.07;3.80;;;;;;;;;;6176365;28;20121;-70
2023/07/24 09:50:28;;;;;;;6.90;4.07;;;;;;;;;;6155626;28;20406;-70
2023/07/24 09:53:49;;;;;;;4.10;3.70;;;;;;;;;;6156183;28;20651;-70
2023/07/24 09:56:50;;;;;;;5.47;4.25;;;;;;;;;;5797300;28;10000014;-71
2023/07/24 09:59:51;;;;;;;6.38;4.68;;;;;;;;;;6157685;28;20037;-70
2023/07/24 10:02:52;;;;;;;6.65;4.45;;;;;;;;;;6156525;28;20030;-70
2023/07/24 10:05:52;;;;;;;5.65;4.15;;;;;;;;;;6159971;28;20197;-70
2023/07/24 10:08:53;;;;;;;4.68;4.22;;;;;;;;;;6162122;28;20034;-70
2023/07/24 10:11:53;;;;;;;4.90;4.00;;;;;;;;;;6164140;28;20031;-70
2023/07/24 10:14:55;;;;;;;4.53;3.93;;;;;;;;;;6162761;28;20026;-70
2023/07/24 10:18:03;;;;;;;4.75;4.20;;;;;;;;;;6178049;28;20584;-70
2023/07/24 10:21:04;;;;;;;4.85;4.25;;;;;;;;;;6162789;28;20112;-71
2023/07/24 10:24:04;;;;;;;4.55;4.15;;;;;;;;;;6159872;28;20027;-69
2023/07/24 10:27:05;;;;;;;4.37;3.97;;;;;;;;;;6161286;28;20026;-71
2023/07/24 10:30:07;;;;;;;4.47;4.18;;;;;;;;;;6162285;28;20725;-71
2023/07/24 10:33:11;;;;;;;5.00;4.50;;;;;;;;;;6161566;28;20803;-72
2023/07/24 10:36:13;;;;;;;6.20;5.63;;;;;;;;;;6161637;28;20156;-70
2023/07/24 10:39:15;;;;;;;5.63;5.13;;;;;;;;;;6160288;28;20019;-69
2023/07/24 10:42:22;;;;;;;5.80;4.70;;;;;;;;;;6159020;28;20029;-69
2023/07/24 10:45:22;;;;;;;6.32;4.65;;;;;;;;;;6162385;28;20036;-71
2023/07/24 10:48:25;;;;;;;4.93;4.47;;;;;;;;;;6160040;28;20121;-71
2023/07/24 10:51:25;;;;;;;4.95;4.55;;;;;;;;;;6160658;28;20487;-70
2023/07/24 10:54:25;;;;;;;4.67;4.27;;;;;;;;;;6160334;28;20125;-71
2023/07/24 10:57:26;;;;;;;6.30;4.53;;;;;;;;;;6163724;28;20407;-70
2023/07/24 11:00:27;;;;;;;5.32;4.82;;;;;;;;;;6161057;28;21437;-70
2023/07/24 11:03:27;;;;;;;4.70;4.30;;;;;;;;;;6160762;28;20442;-70
2023/07/24 11:06:28;;;;;;;6.50;3.83;;;;;;;;;;6159371;28;20022;-70
2023/07/24 11:09:36;;;;;;;5.22;4.70;;;;;;;;;;6176394;28;20023;-70
2023/07/24 11:12:38;;;;;;;5.78;4.70;;;;;;;;;;6162140;28;20030;-70
2023/07/24 11:15:39;;;;;;;5.18;4.68;;;;;;;;;;6160125;28;20030;-70
2023/07/24 11:18:47;;;;;;;5.05;4.60;;;;;;;;;;6161479;28;20110;-72
2023/07/24 11:21:47;;;;;;;4.75;4.18;;;;;;;;;;6160286;28;20142;-69
2023/07/24 11:24:47;;;;;;;4.30;3.90;;;;;;;;;;6160135;28;20070;-70
2023/07/24 11:27:48;;;;;;;5.63;4.57;;;;;;;;;;6162542;28;20034;-70
2023/07/24 11:30:49;;;;;;;5.03;4.63;;;;;;;;;;6161179;28;20114;-71
2023/07/24 11:33:50;;;;;;;5.20;4.80;;;;;;;;;;6158997;28;20398;-70
2023/07/24 11:36:50;;;;;;;5.32;4.75;;;;;;;;;;6161995;28;20320;-68
2023/07/24 11:39:56;;;;;;;5.30;4.80;;;;;;;;;;6161282;28;20661;-71
2023/07/24 11:42:57;;;;;;;6.43;5.10;;;;;;;;;;6160883;28;20257;-70
2023/07/24 11:45:57;;;;;;;5.20;4.70;;;;;;;;;;6161703;28;20870;-71
2023/07/24 11:48:57;;;;;;;7.22;5.68;;;;;;;;;;6160579;28;20066;-70
2023/07/24 11:52:05;;;;;;;5.70;5.10;;;;;;;;;;6176551;28;20075;-70
2023/07/24 11:55:05;;;;;;;5.40;4.90;;;;;;;;;;6163514;28;20194;-70
2023/07/24 11:58:06;;;;;;;5.40;4.95;;;;;;;;;;5827350;28;9999789;-70
2023/07/24 12:01:06;;;;;;;6.47;5.87;;;;;;;;;;6187686;28;20022;-70
2023/07/24 12:04:06;;;;;;;6.60;5.93;;;;;;;;;;6174449;28;20046;-69
2023/07/24 12:07:07;;;;;;;6.00;5.40;;;;;;;;;;6165758;28;20037;-70
2023/07/24 12:10:08;;;;;;;6.55;5.90;;;;;;;;;;6160624;28;20645;-71
2023/07/24 12:13:09;;;;;;;7.18;5.90;;;;;;;;;;6165233;28;20058;-69
2023/07/24 12:16:09;;;;;;;6.47;5.88;;;;;;;;;;6168436;28;20025;-69
2023/07/24 12:19:09;;;;;;;6.30;5.70;;;;;;;;;;6166825;28;20393;-68
2023/07/24 12:22:09;;;;;;;6.47;5.73;;;;;;;;;;6165127;28;20082;-69
2023/07/24 12:25:09;;;;;;;6.80;6.07;;;;;;;;;;6166052;28;20371;-71
2023/07/24 12:28:10;;;;;;;7.20;6.50;;;;;;;;;;6165121;28;20769;-70
2023/07/24 12:31:10;;;;;;;7.73;6.53;;;;;;;;;;6167323;28;20169;-70
2023/07/24 12:34:10;;;;;;;7.55;6.75;;;;;;;;;;6179558;28;20782;-70
2023/07/24 12:37:12;;;;;;;7.22;6.53;;;;;;;;;;6158432;28;20055;-69
2023/07/24 12:40:13;;;;;;;7.88;7.07;;;;;;;;;;6158320;28;20022;-70
2023/07/24 12:43:14;;;;;;;7.85;7.03;;;;;;;;;;6175578;28;20741;-70
2023/07/24 12:46:15;;;;;;;8.80;7.90;;;;;;;;;;6163031;28;20629;-71
2023/07/24 12:49:15;;;;;;;10.43;8.10;;;;;;;;;;6160668;28;20346;-70
2023/07/24 12:52:16;;;;;;;10.13;9.00;;;;;;;;;;6160268;28;20296;-72
2023/07/24 12:55:16;;;;;;;8.95;8.15;;;;;;;;;;6162603;28;20045;-69
2023/07/24 12:58:16;;;;;;;8.57;7.78;;;;;;;;;;6159352;28;20479;-69
2023/07/24 13:01:17;;;;;;;9.90;7.87;;;;;;;;;;6159214;28;20066;-70
2023/07/24 13:04:18;;;;;;;8.33;7.53;;;;;;;;;;6159661;28;20033;-71
2023/07/24 13:07:19;;;;;;;8.05;7.05;;;;;;;;;;6159637;28;20317;-73
2023/07/24 13:10:19;;;;;;;8.18;7.38;;;;;;;;;;6162730;28;20089;-69
2023/07/24 13:13:19;;;;;;;8.33;7.57;;;;;;;;;;6164053;28;20038;-70
2023/07/24 13:16:20;;;;;;;9.80;8.40;;;;;;;;;;6161623;28;20156;-72
2023/07/24 13:19:20;;;;;;;9.30;6.80;;;;;;;;;;6163016;28;20030;-67
2023/07/24 13:22:20;;;;;;;9.30;5.77;;;;;;;;;;6162714;28;20275;-68
2023/07/24 13:25:20;;;;;;;7.30;5.77;;;;;;;;;;6154446;28;20073;-69
2023/07/24 13:28:21;;;;;;;6.43;5.83;;;;;;;;;;6170511;28;20460;-69
2023/07/24 13:31:22;;;;;;;6.33;5.30;;;;;;;;;;6152971;28;20856;-69
2023/07/24 13:34:23;;;;;;;5.82;5.32;;;;;;;;;;6155810;28;20049;-68
2023/07/24 13:37:26;;;;;;;5.13;4.65;;;;;;;;;;6157197;28;20053;-67
2023/07/24 13:40:26;;;;;;;5.93;5.43;;;;;;;;;;6157553;28;20029;-68
2023/07/24 13:43:27;;;;;;;5.47;5.07;;;;;;;;;;6153831;28;20394;-68
2023/07/24 13:46:27;;;;;;;6.15;5.63;;;;;;;;;;6156163;28;20033;-67
2023/07/24 13:49:28;;;;;;;6.03;5.43;;;;;;;;;;6172134;28;20030;-67
2023/07/24 13:52:28;;;;;;;6.90;6.10;;;;;;;;;;6151863;28;20277;-69
2023/07/24 13:55:29;;;;;;;7.07;6.30;;;;;;;;;;6166199;28;20034;-67
2023/07/24 13:58:29;;;;;;;6.70;5.95;;;;;;;;;;6152352;28;20491;-69
2023/07/24 14:01:29;;;;;;;7.33;5.67;;;;;;;;;;6155856;28;20307;-68
2023/07/24 14:04:30;;;;;;;5.50;5.00;;;;;;;;;;6153924;28;20706;-67
2023/07/24 14:07:30;;;;;;;6.80;6.10;;;;;;;;;;6155271;28;20753;-70
2023/07/24 14:10:30;;;;;;;6.50;5.80;;;;;;;;;;6154138;28;20129;-68
2023/07/24 14:13:30;;;;;;;6.43;5.53;;;;;;;;;;6154800;28;20030;-69
2023/07/24 14:16:31;;;;;;;6.53;6.00;;;;;;;;;;6164033;28;20081;-67
2023/07/24 14:19:31;;;;;;;6.20;5.30;;;;;;;;;;6156315;28;20045;-67
2023/07/24 14:22:31;;;;;;;6.40;5.80;;;;;;;;;;6153115;28;20024;-66
2023/07/24 14:25:31;;;;;;;5.97;5.47;;;;;;;;;;6156676;28;20019;-67
2023/07/24 14:28:32;;;;;;;8.73;5.57;;;;;;;;;;6154581;28;20050;-68
2023/07/24 14:31:33;;;;;;;10.02;7.05;;;;;;;;;;6153110;28;20034;-68
2023/07/24 14:34:33;;;;;;;6.70;6.00;;;;;;;;;;6154049;28;20084;-69
2023/07/24 14:37:33;;;;;;;7.30;5.93;;;;;;;;;;6154662;28;20361;-69
2023/07/24 14:40:33;;;;;;;6.70;6.00;;;;;;;;;;6153748;28;20653;-68
2023/07/24 14:43:34;;;;;;;6.13;5.10;;;;;;;;;;6153411;28;20684;-66
2023/07/24 14:46:34;;;;;;;7.30;6.60;;;;;;;;;;6153830;28;20853;-67
2023/07/24 14:49:34;;;;;;;6.33;5.73;;;;;;;;;;6152540;28;20041;-67
2023/07/24 14:52:34;;;;;;;7.37;5.70;;;;;;;;;;6151765;28;20030;-67
2023/07/24 14:55:35;;;;;;;6.93;6.32;;;;;;;;;;6151776;28;20034;-66
2023/07/24 14:58:35;;;;;;;7.30;5.90;;;;;;;;;;6151889;28;20416;-68
2023/07/24 15:01:35;;;;;;;6.97;6.20;;;;;;;;;;6152327;28;20034;-68
2023/07/24 15:04:35;;;;;;;6.60;5.90;;;;;;;;;;6147769;28;20730;-67
2023/07/24 15:07:36;;;;;;;8.33;6.60;;;;;;;;;;6155401;28;20057;-68
2023/07/24 15:10:36;;;;;;;6.60;6.00;;;;;;;;;;6158802;28;20238;-67
2023/07/24 15:13:36;;;;;;;7.78;6.97;;;;;;;;;;6174968;28;20041;-68
2023/07/24 15:16:37;;;;;;;7.20;6.47;;;;;;;;;;6153029;28;20034;-70
2023/07/24 15:19:37;;;;;;;5.97;5.30;;;;;;;;;;6152402;28;20030;-67
2023/07/24 15:22:37;;;;;;;8.40;6.80;;;;;;;;;;6153696;28;20594;-66
2023/07/24 15:25:38;;;;;;;8.47;6.30;;;;;;;;;;6147963;28;20033;-67
2023/07/24 15:28:38;;;;;;;7.72;5.85;;;;;;;;;;6150039;28;20053;-67
2023/07/24 15:31:40;;;;;;;7.00;5.50;;;;;;;;;;6151385;28;20627;-67
2023/07/24 15:34:40;;;;;;;6.95;6.25;;;;;;;;;;6157474;28;20026;-68
2023/07/24 15:37:41;;;;;;;5.87;5.20;;;;;;;;;;6153937;28;20582;-67
2023/07/24 15:40:41;;;;;;;8.33;5.70;;;;;;;;;;6152757;28;20022;-67
2023/07/24 15:43:41;;;;;;;6.17;5.57;;;;;;;;;;6152998;28;20037;-68
2023/07/24 15:46:42;;;;;;;6.80;6.20;;;;;;;;;;6149089;28;20285;-68
2023/07/24 15:49:42;;;;;;;6.50;5.70;;;;;;;;;;6150200;28;20152;-68
2023/07/24 15:52:42;;;;;;;6.30;5.70;;;;;;;;;;6149529;28;20438;-66
2023/07/24 15:55:43;;;;;;;6.73;6.03;;;;;;;;;;6138590;28;20522;-66
2023/07/24 15:58:43;;;;;;;6.53;5.40;;;;;;;;;;6124833;28;20049;-66
2023/07/24 16:01:43;;;;;;;6.10;5.50;;;;;;;;;;6145730;28;20471;-68
2023/07/24 16:04:44;;;;;;;7.57;5.60;;;;;;;;;;6144194;28;21813;-72
2023/07/24 16:07:45;;;;;;;7.10;5.55;;;;;;;;;;6161334;28;20568;-69
2023/07/24 16:10:45;;;;;;;6.82;5.18;;;;;;;;;;6150075;28;20026;-70
2023/07/24 16:13:46;;;;;;;7.53;5.47;;;;;;;;;;6154170;28;20124;-70
2023/07/24 16:16:46;;;;;;;5.70;5.13;;;;;;;;;;6153821;28;20375;-70
2023/07/24 16:19:46;;;;;;;6.80;5.50;;;;;;;;;;6154104;28;20345;-69
2023/07/24 16:22:46;;;;;;;5.97;5.37;;;;;;;;;;6170251;28;20343;-70
2023/07/24 16:25:47;;;;;;;5.30;4.63;;;;;;;;;;6149133;28;20339;-68
2023/07/24 16:28:50;;;;;;;6.17;5.43;;;;;;;;;;6148552;28;21041;-70
2023/07/24 16:31:50;;;;;;;7.78;5.95;;;;;;;;;;6146922;28;20520;-70
2023/07/24 16:34:51;;;;;;;7.23;5.70;;;;;;;;;;6181809;28;20037;-68
2023/07/24 16:37:51;;;;;;;6.15;5.55;;;;;;;;;;6182745;28;20022;-69
2023/07/24 16:40:51;;;;;;;6.50;5.33;;;;;;;;;;6181966;28;20105;-68
2023/07/24 16:43:51;;;;;;;7.13;5.85;;;;;;;;;;6185155;28;20137;-68
2023/07/24 16:46:52;;;;;;;6.53;5.30;;;;;;;;;;6180994;28;20109;-68
2023/07/24 16:49:52;;;;;;;6.27;5.23;;;;;;;;;;6186163;28;20080;-69
2023/07/24 16:52:52;;;;;;;5.70;5.17;;;;;;;;;;6183681;28;20026;-69
2023/07/24 16:55:52;;;;;;;7.30;5.33;;;;;;;;;;6180002;28;20105;-69
2023/07/24 16:58:53;;;;;;;6.50;4.87;;;;;;;;;;6186434;28;20457;-69
2023/07/24 17:01:54;;;;;;;7.10;5.35;;;;;;;;;;6189326;28;20284;-69
2023/07/24 17:04:54;;;;;;;6.55;5.32;;;;;;;;;;6190217;28;20049;-69
2023/07/24 17:07:54;;;;;;;7.03;5.20;;;;;;;;;;6190219;28;20089;-69
2023/07/24 17:10:54;;;;;;;5.40;4.90;;;;;;;;;;6184092;28;20034;-69
2023/07/24 17:13:56;;;;;;;5.93;5.33;;;;;;;;;;6189099;28;20131;-67
2023/07/24 17:16:56;;;;;;;6.38;5.47;;;;;;;;;;6184418;28;20053;-66
2023/07/24 17:19:56;;;;;;;6.47;5.65;;;;;;;;;;6184431;28;20022;-66
2023/07/24 17:22:57;;;;;;;7.78;5.30;;;;;;;;;;6183272;28;20490;-65
2023/07/24 17:25:57;;;;;;;6.13;5.13;;;;;;;;;;6202989;28;20022;-66
2023/07/24 17:29:01;;;;;;;7.80;6.90;;;;;;;;;;6190950;28;20069;-73
2023/07/24 17:32:01;;;;;;;7.43;6.63;;;;;;;;;;6201320;28;20125;-68
2023/07/24 17:35:01;;;;;;;7.43;5.57;;;;;;;;;;6182696;28;20030;-71
2023/07/24 17:38:02;;;;;;;6.23;5.63;;;;;;;;;;6185918;28;20385;-74
2023/07/24 17:41:03;;;;;;;7.07;6.05;;;;;;;;;;6191061;28;20285;-68
2023/07/24 17:44:04;;;;;;;9.25;5.50;;;;;;;;;;6188731;28;20029;-68
2023/07/24 17:47:04;;;;;;;10.53;3.10;;;;;;;;;;6188974;28;20464;-76
2023/07/24 17:50:05;;;;;;;2.80;2.30;;;;;;;;;;6190580;28;20541;-72
2023/07/24 17:53:05;;;;;;;3.83;2.28;;;;;;;;;;6183508;28;20459;-69
2023/07/24 17:56:05;;;;;;;4.00;1.97;;;;;;;;;;6188323;28;20057;-71
2023/07/24 17:59:05;;;;;;;2.93;1.90;;;;;;;;;;6190027;28;20037;-72
2023/07/24 18:02:06;;;;;;;4.80;2.25;;;;;;;;;;6189217;28;20045;-70
2023/07/24 18:05:06;;;;;;;3.22;1.90;;;;;;;;;;6185954;28;20406;-71
2023/07/24 18:08:07;;;;;;;5.03;2.03;;;;;;;;;;6184229;28;20462;-71
2023/07/24 18:11:07;;;;;;;3.13;1.83;;;;;;;;;;6183348;28;20349;-69
2023/07/24 18:14:07;;;;;;;3.57;1.60;;;;;;;;;;6186747;28;20281;-71